createdAt,value
2023-05-08T00:01:46.445Z,10.30
2023-05-08T00:04:16.794Z,11.10
2023-05-08T00:06:44.378Z,12.57
2023-05-08T00:09:12.333Z,11.57
2023-05-08T00:11:39.717Z,12.00
2023-05-08T00:14:07.523Z,11.07
2023-05-08T00:16:34.797Z,11.20
2023-05-08T00:19:02.070Z,11.23
2023-05-08T00:21:30.100Z,12.90
2023-05-08T00:23:57.885Z,11.90
2023-05-08T00:26:25.204Z,11.47
2023-05-08T00:28:53.012Z,11.13
2023-05-08T00:31:21.175Z,11.40
2023-05-08T00:33:48.448Z,11.40
2023-05-08T00:36:16.841Z,11.43
2023-05-08T00:38:44.227Z,11.87
2023-05-08T00:41:11.415Z,11.30
2023-05-08T00:43:39.897Z,11.70
2023-05-08T00:46:07.281Z,11.30
2023-05-08T00:48:35.523Z,11.93
2023-05-08T00:51:05.113Z,11.30
2023-05-08T00:53:34.076Z,11.83
2023-05-08T00:56:02.061Z,11.47
2023-05-08T00:58:29.587Z,10.93
2023-05-08T01:00:57.559Z,11.13
2023-05-08T01:03:26.056Z,10.40
2023-05-08T01:05:53.751Z,11.47
2023-05-08T01:08:21.516Z,10.33
2023-05-08T01:10:58.897Z,10.87
2023-05-08T01:13:29.308Z,11.37
2023-05-08T01:16:02.414Z,9.97
2023-05-08T01:18:48.704Z,10.93
2023-05-08T01:21:23.467Z,11.17
2023-05-08T01:24:10.953Z,10.50
2023-05-08T01:26:46.357Z,11.13
2023-05-08T01:29:49.560Z,11.43
2023-05-08T01:32:16.891Z,11.30
2023-05-08T01:35:00.038Z,11.20
2023-05-08T01:37:33.354Z,11.13
2023-05-08T01:40:08.925Z,9.90
2023-05-08T01:42:45.943Z,10.77
2023-05-08T01:45:20.109Z,9.57
2023-05-08T01:47:50.810Z,10.20
2023-05-08T01:50:31.692Z,10.50
2023-05-08T01:53:04.581Z,9.93
2023-05-08T01:55:35.345Z,11.10
2023-05-08T01:58:05.415Z,9.57
2023-05-08T02:00:33.219Z,10.23
2023-05-08T02:03:01.863Z,11.20
2023-05-08T02:05:30.121Z,10.20
2023-05-08T02:07:58.427Z,9.77
2023-05-08T02:10:26.147Z,8.90
2023-05-08T02:12:55.954Z,10.80
2023-05-08T02:15:25.208Z,10.20
2023-05-08T02:17:54.383Z,10.97
2023-05-08T02:20:24.079Z,10.23
2023-05-08T02:22:52.327Z,11.00
2023-05-08T02:25:19.962Z,9.47
2023-05-08T02:27:48.738Z,10.03
2023-05-08T02:30:18.809Z,9.70
2023-05-08T02:32:47.856Z,10.70
2023-05-08T02:35:19.344Z,9.83
2023-05-08T02:37:53.715Z,9.10
2023-05-08T02:40:23.632Z,10.20
2023-05-08T02:42:51.915Z,9.90
2023-05-08T02:45:19.969Z,10.30
2023-05-08T02:47:53.851Z,10.57
2023-05-08T02:50:25.900Z,10.03
2023-05-08T02:52:57.717Z,10.13
2023-05-08T02:55:34.308Z,10.40
2023-05-08T02:58:08.651Z,9.80
2023-05-08T03:00:39.054Z,10.10
2023-05-08T03:03:06.387Z,9.57
2023-05-08T03:05:35.381Z,10.83
2023-05-08T03:08:08.079Z,10.40
2023-05-08T03:10:37.101Z,10.83
2023-05-08T03:13:05.738Z,10.67
2023-05-08T03:15:47.327Z,10.60
2023-05-08T03:18:16.106Z,11.30
2023-05-08T03:20:48.216Z,10.97
2023-05-08T03:23:16.810Z,10.33
2023-05-08T03:25:44.795Z,10.57
2023-05-08T03:28:14.335Z,11.67
2023-05-08T03:30:42.541Z,11.10
2023-05-08T03:33:13.826Z,10.73
2023-05-08T03:35:41.834Z,11.00
2023-05-08T03:38:10.893Z,11.20
2023-05-08T03:40:38.839Z,11.47
2023-05-08T03:43:08.145Z,11.90
2023-05-08T03:45:38.366Z,10.43
2023-05-08T03:48:07.162Z,11.50
2023-05-08T03:50:36.537Z,12.50
2023-05-08T03:53:05.376Z,10.53
2023-05-08T03:55:33.584Z,10.67
2023-05-08T03:58:21.534Z,10.87
2023-05-08T04:00:55.420Z,10.80
2023-05-08T04:03:40.718Z,10.47
2023-05-08T04:06:15.007Z,11.53
2023-05-08T04:08:45.871Z,11.33
2023-05-08T04:11:19.656Z,11.97
2023-05-08T04:13:50.734Z,11.03
2023-05-08T04:16:21.666Z,11.97
2023-05-08T04:18:50.651Z,12.90
2023-05-08T04:21:22.726Z,10.90
2023-05-08T04:23:52.710Z,12.17
2023-05-08T04:26:20.536Z,12.20
2023-05-08T04:28:49.808Z,12.87
2023-05-08T04:31:18.564Z,12.00
2023-05-08T04:33:47.250Z,12.10
2023-05-08T04:36:15.601Z,11.70
2023-05-08T04:38:45.019Z,11.93
2023-05-08T04:41:13.642Z,12.70
2023-05-08T04:43:41.199Z,12.33
2023-05-08T04:46:10.870Z,12.33
2023-05-08T04:48:39.673Z,11.87
2023-05-08T04:51:07.636Z,11.57
2023-05-08T04:53:35.444Z,11.33
2023-05-08T04:56:02.854Z,11.77
2023-05-08T04:58:30.245Z,10.97
2023-05-08T05:01:04.362Z,10.10
2023-05-08T05:03:33.287Z,11.60
2023-05-08T05:06:02.248Z,11.97
2023-05-08T05:08:30.067Z,11.50
2023-05-08T05:10:58.860Z,12.10
2023-05-08T05:13:27.346Z,12.13
2023-05-08T05:15:57.279Z,12.53
2023-05-08T05:18:25.981Z,12.63
2023-05-08T05:20:54.822Z,12.40
2023-05-08T05:23:23.020Z,12.03
2023-05-08T05:25:51.171Z,11.97
2023-05-08T05:28:19.235Z,10.93
2023-05-08T05:30:50.381Z,12.30
2023-05-08T05:33:18.217Z,11.13
2023-05-08T05:35:46.489Z,11.80
2023-05-08T05:38:14.435Z,11.97
2023-05-08T05:40:42.121Z,12.17
2023-05-08T05:43:10.732Z,11.10
2023-05-08T05:45:39.913Z,12.80
2023-05-08T05:48:08.139Z,11.47
2023-05-08T05:50:37.576Z,12.90
2023-05-08T05:53:05.774Z,12.70
2023-05-08T05:55:34.186Z,12.00
2023-05-08T05:58:02.147Z,12.40
2023-05-08T06:00:31.144Z,12.17
2023-05-08T06:02:59.766Z,12.87
2023-05-08T06:05:27.564Z,11.70
2023-05-08T06:07:55.122Z,13.30
2023-05-08T06:10:23.429Z,12.87
2023-05-08T06:12:51.252Z,13.20
2023-05-08T06:15:19.087Z,13.80
2023-05-08T06:17:47.551Z,12.00
2023-05-08T06:20:14.764Z,13.50
2023-05-08T06:22:42.392Z,12.43
2023-05-08T06:25:11.586Z,13.37
2023-05-08T06:27:39.791Z,12.53
2023-05-08T06:30:10.971Z,12.20
2023-05-08T06:32:40.023Z,11.63
2023-05-08T06:35:07.924Z,12.00
2023-05-08T06:37:35.320Z,13.20
2023-05-08T06:40:12.121Z,11.00
2023-05-08T06:42:40.746Z,13.87
2023-05-08T06:45:08.724Z,12.37
2023-05-08T06:47:36.331Z,11.33
2023-05-08T06:50:04.836Z,11.30
2023-05-08T06:52:33.409Z,12.87
2023-05-08T06:55:01.747Z,13.33
2023-05-08T06:57:30.720Z,12.90
2023-05-08T06:59:58.141Z,10.80
2023-05-08T07:02:25.883Z,12.37
2023-05-08T07:04:56.265Z,13.07
2023-05-08T07:07:25.701Z,13.53
2023-05-08T07:09:53.238Z,11.37
2023-05-08T07:12:21.987Z,12.20
2023-05-08T07:14:50.093Z,11.30
2023-05-08T07:17:18.463Z,12.60
2023-05-08T07:19:51.018Z,11.33
2023-05-08T07:22:19.511Z,12.30
2023-05-08T07:24:48.394Z,13.43
2023-05-08T07:27:16.734Z,12.30
2023-05-08T07:29:44.454Z,12.20
2023-05-08T07:32:14.238Z,12.50
2023-05-08T07:34:41.858Z,13.30
2023-05-08T07:37:09.024Z,12.63
2023-05-08T07:39:37.326Z,13.27
2023-05-08T07:42:04.492Z,12.23
2023-05-08T07:44:43.669Z,13.90
2023-05-08T07:47:20.285Z,11.27
2023-05-08T07:49:47.782Z,13.37
2023-05-08T07:52:15.905Z,13.90
2023-05-08T07:54:43.965Z,14.93
2023-05-08T07:57:11.697Z,13.60
2023-05-08T07:59:41.501Z,12.60
2023-05-08T08:02:08.991Z,12.63
2023-05-08T08:04:37.849Z,12.43
2023-05-08T08:07:05.238Z,12.63
2023-05-08T08:09:32.501Z,12.00
2023-05-08T08:12:01.487Z,11.80
2023-05-08T08:14:30.807Z,13.03
2023-05-08T08:16:58.413Z,13.13
2023-05-08T08:19:26.296Z,12.43
2023-05-08T08:21:53.468Z,12.40
2023-05-08T08:24:21.037Z,13.00
2023-05-08T08:26:48.512Z,12.60
2023-05-08T08:29:16.256Z,12.30
2023-05-08T08:31:43.441Z,12.10
2023-05-08T08:34:10.735Z,12.90
2023-05-08T08:36:37.934Z,15.13
2023-05-08T08:39:05.314Z,13.53
2023-05-08T08:41:33.577Z,12.70
2023-05-08T08:44:00.833Z,12.87
2023-05-08T08:46:28.654Z,15.30
2023-05-08T08:48:57.158Z,13.00
2023-05-08T08:51:28.704Z,12.37
2023-05-08T08:54:06.899Z,12.03
2023-05-08T08:56:34.907Z,13.17
2023-05-08T08:59:03.908Z,12.10
2023-05-08T09:01:32.681Z,11.90
2023-05-08T09:04:00.284Z,13.00
2023-05-08T09:06:27.606Z,11.03
2023-05-08T09:08:58.377Z,12.40
2023-05-08T09:11:26.755Z,12.47
2023-05-08T09:13:57.853Z,13.03
2023-05-08T09:16:25.733Z,14.10
2023-05-08T09:18:53.221Z,12.70
2023-05-08T09:21:22.999Z,14.07
2023-05-08T09:23:56.749Z,13.20
2023-05-08T09:26:34.375Z,13.87
2023-05-08T09:29:17.888Z,14.40
2023-05-08T09:31:47.039Z,13.43
2023-05-08T09:34:28.645Z,12.73
2023-05-08T09:37:18.801Z,14.03
2023-05-08T09:39:47.848Z,13.57
2023-05-08T09:42:15.030Z,14.07
2023-05-08T09:44:46.398Z,13.17
2023-05-08T09:47:14.856Z,13.20
2023-05-08T09:50:00.575Z,12.90
2023-05-08T09:52:28.747Z,13.67
2023-05-08T09:55:00.294Z,14.77
2023-05-08T09:57:29.275Z,14.97
2023-05-08T10:00:03.306Z,13.43
2023-05-08T10:02:34.879Z,15.40
2023-05-08T10:05:02.677Z,15.07
2023-05-08T10:07:33.992Z,15.40
2023-05-08T10:10:04.147Z,16.07
2023-05-08T10:12:32.222Z,15.33
2023-05-08T10:14:59.920Z,14.87
2023-05-08T10:17:47.399Z,14.57
2023-05-08T10:20:16.640Z,14.37
2023-05-08T10:22:44.555Z,14.20
2023-05-08T10:25:16.805Z,14.90
2023-05-08T10:27:46.459Z,14.90
2023-05-08T10:30:17.122Z,14.80
2023-05-08T10:32:45.114Z,19.93
2023-05-08T10:35:12.782Z,19.40
2023-05-08T10:37:42.456Z,14.87
2023-05-08T10:40:11.128Z,13.47
2023-05-08T10:42:41.172Z,12.10
2023-05-08T10:45:09.017Z,12.60
2023-05-08T10:47:58.542Z,12.50
2023-05-08T10:50:44.468Z,11.77
2023-05-08T10:53:20.489Z,11.73
2023-05-08T10:55:50.360Z,12.40
2023-05-08T10:58:26.679Z,12.20
2023-05-08T11:00:53.935Z,11.67
2023-05-08T11:03:31.421Z,12.50
2023-05-08T11:06:00.622Z,11.97
2023-05-08T11:08:29.323Z,13.13
2023-05-08T11:10:59.945Z,11.70
2023-05-08T11:13:34.799Z,13.90
2023-05-08T11:16:02.403Z,13.93
2023-05-08T11:18:41.877Z,14.70
2023-05-08T11:21:21.694Z,13.03
2023-05-08T11:23:57.097Z,12.90
2023-05-08T11:26:40.046Z,13.57
2023-05-08T11:29:17.637Z,13.87
2023-05-08T11:31:51.285Z,12.40
2023-05-08T11:34:37.517Z,13.30
2023-05-08T11:37:09.292Z,12.13
2023-05-08T11:39:36.492Z,14.27
2023-05-08T11:42:34.595Z,13.03
2023-05-08T11:45:06.222Z,13.23
2023-05-08T11:47:43.706Z,13.67
2023-05-08T11:50:16.111Z,12.63
2023-05-08T11:52:43.775Z,13.27
2023-05-08T11:55:12.060Z,13.53
2023-05-08T11:57:39.980Z,14.10
2023-05-08T12:00:08.056Z,14.33
2023-05-08T12:02:38.385Z,13.10
2023-05-08T12:05:07.362Z,13.20
2023-05-08T12:07:44.056Z,15.57
2023-05-08T12:10:11.786Z,13.77
2023-05-08T12:12:43.430Z,14.57
2023-05-08T12:15:11.615Z,13.10
2023-05-08T12:17:38.941Z,15.03
2023-05-08T12:20:13.625Z,16.60
2023-05-08T12:22:41.569Z,16.90
2023-05-08T12:25:09.699Z,15.03
2023-05-08T12:27:39.753Z,13.90
2023-05-08T12:30:10.873Z,13.90
2023-05-08T12:32:39.412Z,14.20
2023-05-08T12:35:08.098Z,13.80
2023-05-08T12:37:35.384Z,14.70
2023-05-08T12:40:04.452Z,13.77
2023-05-08T12:42:44.775Z,14.20
2023-05-08T12:45:19.963Z,12.67
2023-05-08T12:47:47.924Z,15.63
2023-05-08T12:50:15.930Z,13.20
2023-05-08T12:52:43.545Z,13.80
2023-05-08T12:55:24.075Z,13.80
2023-05-08T12:57:51.893Z,11.97
2023-05-08T13:00:19.451Z,15.40
2023-05-08T13:02:55.942Z,14.37
2023-05-08T13:05:23.862Z,13.63
2023-05-08T13:07:54.255Z,12.27
2023-05-08T13:10:23.880Z,14.23
2023-05-08T13:12:52.286Z,13.23
2023-05-08T13:15:21.096Z,15.90
2023-05-08T13:17:48.312Z,15.17
2023-05-08T13:20:15.981Z,15.07
2023-05-08T13:22:43.400Z,14.33
2023-05-08T13:25:10.818Z,14.50
2023-05-08T13:27:38.046Z,14.03
2023-05-08T13:30:05.546Z,13.60
2023-05-08T13:32:32.732Z,13.77
2023-05-08T13:35:01.090Z,13.37
2023-05-08T13:37:28.552Z,14.40
2023-05-08T13:39:55.718Z,13.83
2023-05-08T13:42:22.936Z,15.27
2023-05-08T13:44:50.211Z,14.43
2023-05-08T13:47:17.485Z,14.87
2023-05-08T13:49:46.845Z,15.30
2023-05-08T13:52:14.039Z,14.00
2023-05-08T13:54:41.255Z,13.90
2023-05-08T13:57:08.607Z,13.40
2023-05-08T13:59:36.440Z,13.67
2023-05-08T14:02:03.947Z,14.70
2023-05-08T14:04:31.181Z,13.40
2023-05-08T14:06:58.506Z,12.30
2023-05-08T14:09:25.687Z,12.73
2023-05-08T14:11:52.957Z,12.17
2023-05-08T14:14:20.184Z,12.30
2023-05-08T14:16:47.343Z,13.57
2023-05-08T14:19:14.670Z,13.27
2023-05-08T14:21:42.285Z,15.70
2023-05-08T14:24:09.543Z,13.30
2023-05-08T14:26:36.806Z,12.20
2023-05-08T14:29:04.019Z,11.00
2023-05-08T14:31:31.341Z,13.50
2023-05-08T14:33:58.529Z,12.37
2023-05-08T14:36:27.262Z,11.50
2023-05-08T14:38:54.479Z,11.30
2023-05-08T14:41:21.924Z,12.40
2023-05-08T14:43:50.157Z,13.20
2023-05-08T14:46:17.452Z,11.77
2023-05-08T14:48:45.841Z,10.70
2023-05-08T14:51:13.981Z,12.73
2023-05-08T14:53:42.078Z,11.47
2023-05-08T14:56:09.839Z,12.50
2023-05-08T14:58:37.314Z,10.40
2023-05-08T15:01:05.330Z,10.27
2023-05-08T15:03:32.666Z,11.90
2023-05-08T15:05:59.925Z,12.03
2023-05-08T15:08:27.531Z,10.10
2023-05-08T15:10:54.777Z,10.87
2023-05-08T15:13:21.990Z,11.40
2023-05-08T15:15:51.603Z,11.30
2023-05-08T15:18:18.979Z,10.37
2023-05-08T15:20:46.157Z,9.27
2023-05-08T15:23:13.597Z,9.20
2023-05-08T15:25:41.469Z,9.60
2023-05-08T15:28:08.632Z,9.47
2023-05-08T15:30:35.853Z,9.30
2023-05-08T15:33:04.183Z,9.40
2023-05-08T15:35:32.673Z,8.80
2023-05-08T15:38:04.438Z,9.60
2023-05-08T15:40:31.919Z,11.03
2023-05-08T15:42:59.081Z,10.87
2023-05-08T15:45:26.252Z,10.33
2023-05-08T15:47:53.451Z,11.50
2023-05-08T15:50:22.156Z,10.83
2023-05-08T15:52:49.320Z,10.60
2023-05-08T15:55:17.547Z,10.70
2023-05-08T15:57:44.753Z,10.30
2023-05-08T16:00:12.354Z,11.77
2023-05-08T16:02:39.542Z,10.90
2023-05-08T16:05:07.170Z,11.37
2023-05-08T16:07:34.480Z,11.97
2023-05-08T16:10:03.441Z,11.33
2023-05-08T16:12:31.895Z,12.10
2023-05-08T16:14:59.519Z,11.03
2023-05-08T16:17:26.789Z,11.80
2023-05-08T16:19:55.548Z,12.07
2023-05-08T16:22:23.152Z,11.67
2023-05-08T16:24:56.134Z,10.60
2023-05-08T16:27:25.542Z,11.80
2023-05-08T16:29:53.028Z,10.80
2023-05-08T16:32:21.132Z,10.80
2023-05-08T16:34:48.341Z,10.83
2023-05-08T16:37:15.578Z,10.40
2023-05-08T16:39:47.198Z,10.93
2023-05-08T16:42:22.244Z,10.40
2023-05-08T16:44:49.692Z,11.67
2023-05-08T16:47:24.281Z,11.97
2023-05-08T16:49:53.868Z,11.33
2023-05-08T16:52:21.453Z,12.20
2023-05-08T16:54:49.068Z,11.90
2023-05-08T16:57:20.091Z,12.10
2023-05-08T17:00:01.022Z,13.50
2023-05-08T17:02:28.372Z,12.60
2023-05-08T17:04:55.889Z,11.67
2023-05-08T17:07:26.535Z,11.73
2023-05-08T17:09:58.851Z,11.50
2023-05-08T17:12:26.282Z,12.23
2023-05-08T17:14:53.824Z,11.90
2023-05-08T17:17:21.402Z,13.40
2023-05-08T17:19:51.176Z,12.03
2023-05-08T17:22:21.193Z,11.67
2023-05-08T17:24:48.398Z,11.73
2023-05-08T17:27:15.672Z,11.80
2023-05-08T17:29:45.643Z,14.80
2023-05-08T17:32:14.326Z,13.53
2023-05-08T17:34:41.842Z,14.13
2023-05-08T17:37:09.050Z,13.20
2023-05-08T17:39:38.370Z,14.17
2023-05-08T17:42:07.166Z,14.20
2023-05-08T17:44:36.863Z,14.50
2023-05-08T17:47:06.486Z,14.13
2023-05-08T17:49:36.468Z,13.37
2023-05-08T17:52:07.356Z,17.87
2023-05-08T17:54:34.855Z,22.17
2023-05-08T17:57:02.282Z,16.60
2023-05-08T17:59:31.512Z,13.73
2023-05-08T18:01:59.416Z,14.50
2023-05-08T18:04:27.192Z,13.73
2023-05-08T18:06:54.596Z,13.30
2023-05-08T18:09:22.838Z,12.90
2023-05-08T18:11:52.472Z,12.73
2023-05-08T18:14:20.140Z,13.03
2023-05-08T18:16:48.398Z,13.30
2023-05-08T18:19:18.227Z,11.50
2023-05-08T18:21:52.689Z,12.47
2023-05-08T18:24:21.238Z,11.87
2023-05-08T18:26:49.728Z,12.50
2023-05-08T18:29:20.974Z,12.43
2023-05-08T18:31:48.490Z,12.53
2023-05-08T18:34:19.841Z,13.43
2023-05-08T18:36:53.246Z,13.00
2023-05-08T18:39:26.019Z,12.50
2023-05-08T18:41:53.192Z,11.47
2023-05-08T18:44:20.688Z,12.17
2023-05-08T18:46:49.571Z,12.97
2023-05-08T18:49:17.034Z,11.97
2023-05-08T18:51:45.266Z,12.97
2023-05-08T18:54:13.852Z,14.90
2023-05-08T18:56:43.695Z,12.30
2023-05-08T18:59:11.151Z,12.27
2023-05-08T19:01:38.428Z,13.13
2023-05-08T19:04:06.379Z,14.40
2023-05-08T19:06:36.422Z,13.77
2023-05-08T19:09:04.208Z,14.00
2023-05-08T19:11:31.710Z,13.60
2023-05-08T19:13:59.498Z,13.37
2023-05-08T19:16:27.882Z,14.40
2023-05-08T19:18:56.910Z,13.37
2023-05-08T19:21:25.810Z,13.43
2023-05-08T19:23:53.379Z,14.40
2023-05-08T19:26:26.448Z,13.10
2023-05-08T19:28:55.503Z,14.00
2023-05-08T19:31:28.172Z,14.70
2023-05-08T19:34:25.827Z,14.60
2023-05-08T19:36:55.029Z,13.77
2023-05-08T19:39:25.545Z,13.23
2023-05-08T19:41:54.088Z,14.17
2023-05-08T19:44:22.540Z,13.13
2023-05-08T19:46:51.556Z,16.43
2023-05-08T19:49:21.349Z,14.40
2023-05-08T19:51:53.855Z,14.27
2023-05-08T19:54:24.147Z,14.30
2023-05-08T19:56:53.481Z,15.50
2023-05-08T19:59:21.188Z,14.03
2023-05-08T20:01:54.273Z,15.30
2023-05-08T20:04:28.102Z,14.90
2023-05-08T20:07:01.764Z,15.33
2023-05-08T20:09:30.351Z,15.10
2023-05-08T20:11:57.989Z,14.70
2023-05-08T20:14:25.599Z,15.17
2023-05-08T20:16:53.385Z,14.83
2023-05-08T20:19:20.894Z,14.17
2023-05-08T20:21:50.053Z,13.87
2023-05-08T20:24:18.636Z,17.07
2023-05-08T20:26:49.947Z,14.80
2023-05-08T20:29:17.388Z,13.97
2023-05-08T20:31:45.261Z,15.40
2023-05-08T20:34:13.440Z,14.40
2023-05-08T20:36:41.212Z,15.13
2023-05-08T20:39:10.048Z,16.77
2023-05-08T20:41:37.198Z,15.80
2023-05-08T20:44:04.438Z,15.70
2023-05-08T20:46:33.700Z,16.47
2023-05-08T20:49:03.930Z,15.90
2023-05-08T20:51:32.459Z,16.50
2023-05-08T20:53:59.926Z,15.13
2023-05-08T20:56:29.985Z,14.77
2023-05-08T20:59:03.771Z,16.17
2023-05-08T21:01:33.012Z,14.63
2023-05-08T21:04:01.985Z,18.17
2023-05-08T21:06:33.930Z,15.70
2023-05-08T21:09:03.303Z,14.60
2023-05-08T21:11:32.841Z,13.97
2023-05-08T21:14:00.144Z,13.87
2023-05-08T21:16:27.417Z,16.10
2023-05-08T21:18:59.152Z,15.33
2023-05-08T21:21:26.838Z,17.20
2023-05-08T21:23:54.685Z,15.80
2023-05-08T21:26:26.740Z,15.37
2023-05-08T21:28:55.400Z,14.80
2023-05-08T21:31:23.956Z,17.77
2023-05-08T21:33:52.062Z,16.27
2023-05-08T21:36:21.778Z,16.27
2023-05-08T21:38:55.923Z,16.77
2023-05-08T21:41:24.690Z,16.57
2023-05-08T21:43:58.511Z,16.00
2023-05-08T21:46:33.048Z,16.67
2023-05-08T21:49:04.085Z,16.77
2023-05-08T21:51:34.175Z,16.30
2023-05-08T21:54:02.173Z,17.93
2023-05-08T21:56:32.783Z,15.53
2023-05-08T21:59:01.250Z,15.97
2023-05-08T22:01:32.533Z,18.70
2023-05-08T22:03:59.821Z,18.30
2023-05-08T22:06:31.501Z,16.00
2023-05-08T22:08:59.068Z,16.13
2023-05-08T22:11:29.124Z,17.30
2023-05-08T22:13:59.211Z,15.97
2023-05-08T22:16:27.728Z,17.03
2023-05-08T22:18:57.201Z,17.73
2023-05-08T22:21:31.520Z,19.20
2023-05-08T22:24:01.956Z,18.33
2023-05-08T22:26:30.805Z,17.97
2023-05-08T22:28:59.616Z,19.00
2023-05-08T22:31:29.336Z,17.60
2023-05-08T22:34:00.059Z,18.00
2023-05-08T22:36:28.035Z,16.30
2023-05-08T22:38:58.788Z,17.97
2023-05-08T22:41:26.994Z,17.40
2023-05-08T22:43:56.081Z,17.10
2023-05-08T22:46:25.311Z,19.60
2023-05-08T22:48:53.290Z,18.43
2023-05-08T22:51:21.778Z,17.43
2023-05-08T22:53:53.943Z,19.00
2023-05-08T22:56:24.107Z,17.67
2023-05-08T22:58:53.663Z,17.70
2023-05-08T23:01:22.823Z,17.50
2023-05-08T23:03:54.768Z,18.33
2023-05-08T23:06:23.718Z,18.57
2023-05-08T23:08:55.033Z,19.97
2023-05-08T23:11:24.686Z,18.10
2023-05-08T23:13:54.795Z,18.30
2023-05-08T23:16:25.067Z,17.40
2023-05-08T23:18:56.679Z,18.47
2023-05-08T23:21:26.669Z,17.10
2023-05-08T23:23:59.856Z,16.50
2023-05-08T23:26:28.836Z,18.40
2023-05-08T23:29:00.388Z,17.80
2023-05-08T23:31:29.956Z,18.67
2023-05-08T23:33:58.254Z,17.80
2023-05-08T23:36:25.936Z,18.53
2023-05-08T23:38:53.660Z,18.80
2023-05-08T23:41:21.163Z,18.90
2023-05-08T23:43:49.603Z,18.93
2023-05-08T23:46:18.933Z,18.43
2023-05-08T23:48:48.640Z,19.10
2023-05-08T23:51:17.117Z,16.70
2023-05-08T23:53:44.789Z,17.77
2023-05-08T23:56:14.266Z,19.03
2023-05-08T23:58:41.858Z,17.83
